KSLE

McNary Field Airport

Salem, Oregon, USA
KSLE 211720Z 2118/2218 VRB03KT P6SM OVC025 FM212000 27006KT P6SM BKN035 FM220200 30006KT P6SM BKN050 FM220900 VRB03KT P6SM OVC025
Issued Valid From Valid To
Jun-21 @ 17:20 UTC
(44 minutes ago)
Jun-21 @ 18:00 UTC
(4 minutes ago)
Jun-22 @ 18:00 UTC
(in 24 hours)
Jun-21 @ 18:00 to Jun-21 @ 20:00
KSLE 211720Z 2118/2218 VRB03KT P6SM OVC025
Wind Visibility Clouds
Variable at 3 knots Greater than 6 miles
  • Overcast at 2,500' AGL
From Jun-21 @ 20:00 to Jun-22 @ 02:00
FM212000 27006KT P6SM BKN035
Wind Visibility Clouds
270° at 6 knots Greater than 6 miles
  • Broken at 3,500' AGL
From Jun-22 @ 02:00 to Jun-22 @ 09:00
FM220200 30006KT P6SM BKN050
Wind Visibility Clouds
300° at 6 knots Greater than 6 miles
  • Broken at 5,000' AGL
From Jun-22 @ 09:00 to Jun-22 @ 18:00
FM220900 VRB03KT P6SM OVC025
Wind Visibility Clouds
Variable at 3 knots Greater than 6 miles
  • Overcast at 2,500' AGL
KSLE 211720Z 2118/2218 VRB03KT P6SM OVC025 FM212000 27006KT P6SM BKN035 FM220200 30006KT P6SM BKN050 FM220900 VRB03KT P6SM OVC025
Issued Jun-21 @ 17:20 UTC
(44 minutes ago)
Valid From Jun-21 @ 18:00 UTC
(4 minutes ago)
Valid To Jun-22 @ 18:00 UTC
(in 24 hours)
Jun-21 @ 18:00 - Jun-21 @ 20:00
Wind Visibility
Variable at 3 knots Greater than 6 miles
Clouds
  • Overcast at 2,500' AGL
From Jun-21 @ 20:00 - Jun-22 @ 02:00
Wind Visibility
270° at 6 knots Greater than 6 miles
Clouds
  • Broken at 3,500' AGL
From Jun-22 @ 02:00 - Jun-22 @ 09:00
Wind Visibility
300° at 6 knots Greater than 6 miles
Clouds
  • Broken at 5,000' AGL
From Jun-22 @ 09:00 - Jun-22 @ 18:00
Wind Visibility
Variable at 3 knots Greater than 6 miles
Clouds
  • Overcast at 2,500' AGL